Time;durP1;ratioP1;P1;durP2;ratioP2;P2;SDS_P1;SDS_P2;PMS_P1;PMS_P2;Temp;Humidity;BMP_temperature;BMP_pressure;BME280_temperature;BME280_humidity;BME280_pressure;Samples;Min_cycle;Max_cycle;Signal;HPM_P1;HPM_P2
2023/07/03 00:01:43;;;;;;;17.48;7.03;;;;;;;26.11;57.98;96212.63;5036353;28;20037;-28
2023/07/03 00:04:10;;;;;;;16.80;7.10;;;;;;;26.20;57.43;96213.50;5036820;28;20025;-28
2023/07/03 00:06:37;;;;;;;18.35;8.15;;;;;;;26.30;57.43;96218.13;5036083;28;20429;-29
2023/07/03 00:09:03;;;;;;;14.57;7.28;;;;;;;26.17;57.62;96209.00;5036323;28;20025;-28
2023/07/03 00:11:28;;;;;;;18.05;8.27;;;;;;;26.20;57.70;96219.06;5036490;28;20022;-28
2023/07/03 00:13:54;;;;;;;20.20;9.35;;;;;;;26.11;58.09;96220.97;5036267;28;20107;-27
2023/07/03 00:16:20;;;;;;;15.00;7.97;;;;;;;26.02;58.20;96226.22;5036261;28;20108;-28
2023/07/03 00:18:47;;;;;;;15.90;8.02;;;;;;;26.04;57.73;96229.97;5036128;28;20025;-27
2023/07/03 00:21:13;;;;;;;14.32;8.00;;;;;;;26.11;57.74;96223.75;5036317;28;20108;-27
2023/07/03 00:23:39;;;;;;;15.35;8.65;;;;;;;26.21;57.34;96224.06;5036083;28;20075;-28
2023/07/03 00:26:05;;;;;;;14.73;8.13;;;;;;;26.00;57.92;96221.19;5035927;28;20426;-28
2023/07/03 00:28:30;;;;;;;20.40;9.02;;;;;;;26.18;57.72;96227.19;5036212;28;20018;-27
2023/07/03 00:30:55;;;;;;;16.88;8.15;;;;;;;26.09;58.01;96217.97;5037185;28;20498;-28
2023/07/03 00:33:21;;;;;;;17.80;8.57;;;;;;;26.03;57.61;96227.72;5035768;28;20013;-29
2023/07/03 00:35:46;;;;;;;15.13;7.90;;;;;;;25.97;58.15;96229.84;5036018;28;20364;-29
2023/07/03 00:38:12;;;;;;;12.40;8.32;;;;;;;26.11;57.62;96229.31;5035623;28;20103;-28
2023/07/03 00:40:37;;;;;;;13.32;7.43;;;;;;;26.13;57.59;96226.75;5035991;28;20025;-28
2023/07/03 00:43:03;;;;;;;11.43;7.38;;;;;;;25.99;57.50;96224.50;5035309;28;20045;-28
2023/07/03 00:45:32;;;;;;;11.45;7.70;;;;;;;26.05;57.52;96225.91;5043477;28;20498;-27
2023/07/03 00:47:58;;;;;;;10.32;7.53;;;;;;;26.12;57.68;96225.25;5035280;28;20159;-28
2023/07/03 00:50:23;;;;;;;12.38;7.80;;;;;;;25.91;58.33;96220.88;5035614;28;20526;-27
2023/07/03 00:52:54;;;;;;;11.75;7.53;;;;;;;26.04;57.85;96229.22;5035458;28;20463;-28
2023/07/03 00:55:22;;;;;;;8.75;6.55;;;;;;;26.03;57.84;96231.25;5035313;28;20021;-28
2023/07/03 00:57:47;;;;;;;8.77;7.15;;;;;;;25.85;58.16;96229.31;5035351;28;20067;-27
2023/07/03 01:00:13;;;;;;;7.60;6.45;;;;;;;26.07;57.62;96226.13;5035701;28;20053;-29
2023/07/03 01:02:46;;;;;;;9.23;6.60;;;;;;;26.04;57.50;96229.97;5035077;28;20044;-28
2023/07/03 01:05:13;;;;;;;;;;;;;;;26.08;56.98;96230.41;5035745;28;20020;-28
2023/07/03 01:07:39;;;;;;;9.88;6.00;;;;;;;26.04;57.19;96220.88;5035065;28;19913;-27
2023/07/03 01:10:09;;;;;;;9.05;5.60;;;;;;;26.04;56.84;96218.84;5035346;28;20025;-28
2023/07/03 01:12:40;;;;;;;6.45;5.47;;;;;;;25.96;57.01;96220.03;5034401;28;20108;-28
2023/07/03 01:15:09;;;;;;;6.88;4.95;;;;;;;25.88;57.37;96221.94;5035246;28;20029;-29
2023/07/03 01:17:40;;;;;;;7.85;5.82;;;;;;;26.09;57.17;96223.53;5035014;28;20028;-28
2023/07/03 01:20:09;;;;;;;7.57;6.20;;;;;;;25.93;57.46;96216.28;5035411;28;20067;-27
2023/07/03 01:23:15;;;;;;;8.90;6.03;;;;;;;25.85;57.35;96220.22;5034819;28;20067;-28
2023/07/03 01:25:42;;;;;;;10.23;6.00;;;;;;;25.96;57.36;96228.38;5034576;28;20032;-27
2023/07/03 01:28:12;;;;;;;7.40;6.13;;;;;;;25.95;57.22;96233.19;5042086;28;20025;-28
2023/07/03 01:30:40;;;;;;;8.50;6.20;;;;;;;26.03;56.69;96234.03;5034382;28;20108;-28
2023/07/03 01:33:08;;;;;;;8.15;6.40;;;;;;;25.98;56.92;96226.53;5034538;28;20032;-27
2023/07/03 01:35:34;;;;;;;7.05;5.80;;;;;;;25.66;57.50;96229.41;5035254;28;20029;-27
2023/07/03 01:38:01;;;;;;;8.55;6.18;;;;;;;25.82;56.99;96224.84;5034493;28;20021;-28
2023/07/03 01:40:27;;;;;;;8.10;6.00;;;;;;;25.81;57.13;96230.91;5048898;28;20057;-30
2023/07/03 01:42:54;;;;;;;7.75;5.72;;;;;;;25.69;57.46;96217.25;5034320;28;20045;-28
2023/07/03 01:45:20;;;;;;;6.93;5.68;;;;;;;25.85;57.27;96218.19;5034334;28;20025;-27
2023/07/03 01:47:46;;;;;;;8.55;6.18;;;;;;;25.70;57.60;96226.31;5034321;28;20528;-28
2023/07/03 01:50:16;;;;;;;5.75;5.13;;;;;;;25.79;57.18;96236.25;5034257;28;20056;-28
2023/07/03 01:52:54;;;;;;;7.35;5.35;;;;;;;25.95;56.16;96232.44;5041800;28;20044;-27
2023/07/03 01:55:33;;;;;;;7.40;5.45;;;;;;;25.80;56.81;96240.53;5034313;28;20032;-27
2023/07/03 01:58:13;;;;;;;5.97;5.10;;;;;;;25.70;56.88;96234.66;5034226;28;20505;-28
2023/07/03 02:00:45;;;;;;;8.15;5.90;;;;;;;25.75;56.65;96231.00;5033974;28;20064;-27
2023/07/03 02:03:26;;;;;;;8.07;5.88;;;;;;;25.68;56.97;96232.41;5034176;28;20104;-27
2023/07/03 02:05:55;;;;;;;6.50;5.35;;;;;;;25.81;56.76;96233.69;5041747;28;20017;-27
2023/07/03 02:08:22;;;;;;;7.68;5.82;;;;;;;25.77;56.37;96231.22;5034014;28;20029;-27
2023/07/03 02:10:48;;;;;;;8.25;6.38;;;;;;;25.76;56.75;96226.94;5034140;28;20036;-27
2023/07/03 02:13:13;;;;;;;10.43;6.60;;;;;;;25.80;56.53;96226.66;5034013;28;20021;-27
2023/07/03 02:15:39;;;;;;;8.98;6.63;;;;;;;25.72;56.94;96226.50;5033916;28;20137;-27
2023/07/03 02:18:04;;;;;;;10.18;7.13;;;;;;;25.71;57.21;96231.34;5034055;28;20025;-27
2023/07/03 02:20:30;;;;;;;10.52;7.38;;;;;;;25.80;56.58;96227.41;5033793;28;20387;-28
2023/07/03 02:22:56;;;;;;;9.18;7.30;;;;;;;25.72;56.86;96232.06;5033229;28;20017;-28
2023/07/03 02:25:22;;;;;;;11.30;7.95;;;;;;;25.83;56.39;96229.13;5033855;28;20076;-29
2023/07/03 02:27:50;;;;;;;10.65;7.25;;;;;;;25.69;56.95;96227.59;5033714;28;20431;-29
2023/07/03 02:30:16;;;;;;;10.05;7.35;;;;;;;25.67;57.65;96242.00;5034341;28;20021;-27
2023/07/03 02:32:42;;;;;;;13.52;8.35;;;;;;;25.83;56.96;96231.88;5033760;28;20045;-28
2023/07/03 02:35:09;;;;;;;11.00;8.43;;;;;;;25.80;56.87;96237.75;5034453;28;20059;-28
2023/07/03 02:37:34;;;;;;;10.77;7.75;;;;;;;25.76;56.91;96238.06;5033522;28;20028;-29
2023/07/03 02:40:00;;;;;;;10.20;8.18;;;;;;;25.72;56.86;96234.84;5033958;28;20029;-27
2023/07/03 02:42:25;;;;;;;11.80;8.15;;;;;;;25.64;57.10;96245.09;5033419;28;20076;-29
2023/07/03 02:44:51;;;;;;;12.52;8.43;;;;;;;25.72;56.49;96237.63;5033662;28;20513;-27
2023/07/03 02:47:17;;;;;;;9.85;8.15;;;;;;;25.72;56.36;96240.41;5032237;28;20056;-28
2023/07/03 02:49:42;;;;;;;9.73;7.35;;;;;;;25.54;57.06;96239.19;5033762;28;20530;-28
2023/07/03 02:52:08;;;;;;;8.70;7.15;;;;;;;25.70;56.40;96242.97;5033547;28;20025;-27
2023/07/03 02:54:33;;;;;;;8.80;6.72;;;;;;;25.61;56.81;96232.25;5033446;28;20102;-27
2023/07/03 02:56:59;;;;;;;8.77;7.88;;;;;;;25.65;56.53;96235.50;5033373;28;20021;-28
2023/07/03 02:59:24;;;;;;;9.60;7.10;;;;;;;25.61;56.69;96248.94;5033474;28;20101;-28
2023/07/03 03:01:50;;;;;;;7.32;6.22;;;;;;;25.75;56.00;96242.88;5033551;28;20029;-28
2023/07/03 03:04:16;;;;;;;9.10;6.78;;;;;;;25.79;56.06;96239.78;5033131;28;20051;-27
2023/07/03 03:06:44;;;;;;;9.68;6.57;;;;;;;25.70;56.02;96229.09;5032766;28;20079;-27
2023/07/03 03:09:10;;;;;;;7.95;6.35;;;;;;;25.70;56.25;96231.88;5033013;28;20033;-27
2023/07/03 03:11:37;;;;;;;7.22;5.82;;;;;;;25.56;56.57;96236.63;5033447;28;20021;-28
2023/07/03 03:14:02;;;;;;;7.03;6.32;;;;;;;25.58;56.91;96233.31;5033293;28;20021;-28
2023/07/03 03:16:28;;;;;;;9.70;7.05;;;;;;;25.43;57.00;96236.59;5033711;28;20540;-27
2023/07/03 03:18:53;;;;;;;8.68;7.18;;;;;;;25.66;56.26;96237.00;5040243;28;20017;-27
2023/07/03 03:21:18;;;;;;;9.73;7.10;;;;;;;25.71;55.83;96244.47;5033069;28;20112;-29
2023/07/03 03:23:45;;;;;;;9.18;7.45;;;;;;;25.44;57.29;96240.88;5032884;28;20025;-28
2023/07/03 03:26:11;;;;;;;10.98;7.78;;;;;;;25.57;56.65;96242.94;5033388;28;20041;-27
2023/07/03 03:28:36;;;;;;;13.20;8.57;;;;;;;25.71;56.20;96245.22;5038463;28;20052;-27
2023/07/03 03:31:02;;;;;;;10.68;8.23;;;;;;;25.65;56.76;96246.59;5035341;28;20440;-28
2023/07/03 03:33:27;;;;;;;11.75;8.10;;;;;;;25.59;56.72;96243.88;5032870;28;20029;-28
2023/07/03 03:35:52;;;;;;;11.35;8.50;;;;;;;25.54;57.16;96243.97;5036508;28;20481;-30
2023/07/03 03:38:18;;;;;;;11.35;7.97;;;;;;;25.63;57.32;96252.69;5036951;28;20029;-27
2023/07/03 03:40:56;;;;;;;11.88;7.45;;;;;;;25.53;57.79;96250.81;5036696;28;20052;-27
2023/07/03 03:43:22;;;;;;;11.38;8.23;;;;;;;25.61;57.82;96243.38;5036930;28;20061;-27
2023/07/03 03:45:58;;;;;;;13.85;8.48;;;;;;;25.54;57.53;96253.06;5036917;28;20461;-28
2023/07/03 03:48:25;;;;;;;10.68;7.78;;;;;;;25.46;57.89;96246.66;5036706;28;20033;-27
2023/07/03 03:50:51;;;;;;;13.30;8.77;;;;;;;25.49;57.83;96245.56;5036537;28;20466;-27
2023/07/03 03:53:16;;;;;;;10.68;7.60;;;;;;;25.65;57.37;96250.13;5036715;28;20022;-28
2023/07/03 03:55:43;;;;;;;12.93;8.30;;;;;;;25.51;57.80;96245.03;5050940;28;20436;-28
2023/07/03 03:58:09;;;;;;;12.60;8.35;;;;;;;25.57;57.20;96246.47;5042343;28;20017;-28
2023/07/03 04:00:35;;;;;;;14.18;8.55;;;;;;;25.66;57.40;96246.06;5037779;28;20053;-28
2023/07/03 04:03:01;;;;;;;15.20;9.38;;;;;;;25.69;56.67;96242.22;5036518;28;20044;-28
2023/07/03 04:05:26;;;;;;;14.18;8.13;;;;;;;25.67;57.39;96236.47;5036095;28;20021;-28
2023/07/03 04:07:51;;;;;;;15.70;8.25;;;;;;;25.64;57.39;96236.75;5038359;28;20115;-27
2023/07/03 04:10:17;;;;;;;15.55;8.70;;;;;;;25.52;57.81;96243.75;5041110;28;20024;-27
2023/07/03 04:12:42;;;;;;;11.82;8.50;;;;;;;25.29;58.34;96229.50;5043770;28;20140;-27
2023/07/03 04:15:08;;;;;;;16.45;9.75;;;;;;;25.35;58.19;96230.91;5036355;28;20025;-27
2023/07/03 04:17:34;;;;;;;15.95;8.57;;;;;;;25.39;58.41;96239.66;5036260;28;20116;-27
2023/07/03 04:19:59;;;;;;;16.17;8.73;;;;;;;25.58;57.63;96247.97;5036218;28;20033;-27
2023/07/03 04:22:26;;;;;;;15.35;9.40;;;;;;;25.66;57.23;96234.97;5043243;28;20024;-29
2023/07/03 04:24:52;;;;;;;13.50;8.32;;;;;;;25.55;58.24;96231.59;5036712;28;20490;-28
2023/07/03 04:27:17;;;;;;;14.02;8.57;;;;;;;25.70;57.87;96234.66;5035898;28;20387;-27
2023/07/03 04:29:43;;;;;;;17.65;8.25;;;;;;;25.74;57.75;96226.72;5036271;28;20017;-27
2023/07/03 04:32:09;;;;;;;17.55;8.98;;;;;;;25.70;57.79;96223.53;5035786;28;20076;-28
2023/07/03 04:34:34;;;;;;;16.80;9.00;;;;;;;25.51;58.45;96229.13;5036506;28;20356;-27
2023/07/03 04:37:00;;;;;;;15.77;9.32;;;;;;;25.64;58.19;96243.06;5034320;28;20025;-28
2023/07/03 04:39:25;;;;;;;16.90;9.13;;;;;;;25.63;58.04;96238.03;5036372;28;20080;-28
2023/07/03 04:41:51;;;;;;;15.93;9.45;;;;;;;25.47;59.09;96233.50;5035531;28;20041;-29
2023/07/03 04:44:16;;;;;;;16.08;10.02;;;;;;;25.58;58.45;96233.31;5035686;28;20029;-27
2023/07/03 04:46:43;;;;;;;15.55;8.93;;;;;;;25.58;58.67;96238.88;5034764;28;20017;-27
2023/07/03 04:49:10;;;;;;;15.02;8.70;;;;;;;25.47;58.70;96237.00;5035528;28;20050;-27
2023/07/03 04:51:36;;;;;;;15.93;9.02;;;;;;;25.59;58.75;96234.81;5036389;28;20029;-28
2023/07/03 04:54:03;;;;;;;14.48;9.10;;;;;;;25.60;58.62;96252.94;5035892;28;20418;-28
2023/07/03 04:56:32;;;;;;;16.30;8.52;;;;;;;25.52;58.96;96238.22;5035184;28;20494;-27
2023/07/03 04:58:58;;;;;;;16.30;8.93;;;;;;;25.52;58.77;96247.28;5035386;28;20029;-27
2023/07/03 05:01:24;;;;;;;15.93;9.23;;;;;;;25.45;59.21;96244.41;5035265;28;20019;-27
2023/07/03 05:03:49;;;;;;;19.17;9.30;;;;;;;25.34;59.69;96242.56;5035541;28;20455;-27
2023/07/03 05:06:15;;;;;;;15.23;9.35;;;;;;;25.55;58.95;96246.22;5035344;28;20037;-28
2023/07/03 05:08:40;;;;;;;17.77;9.57;;;;;;;25.66;58.40;96248.84;5035306;28;20025;-28
2023/07/03 05:11:06;;;;;;;17.25;8.70;;;;;;;25.63;58.48;96240.81;5035223;28;20018;-28
2023/07/03 05:13:31;;;;;;;14.20;8.65;;;;;;;25.48;58.92;96246.09;5035064;28;20028;-27
2023/07/03 05:15:57;;;;;;;14.50;9.20;;;;;;;25.61;58.46;96248.94;5035452;28;20025;-27
2023/07/03 05:18:22;;;;;;;17.77;9.13;;;;;;;25.69;58.52;96249.81;5035495;28;20533;-28
2023/07/03 05:20:49;;;;;;;17.05;9.60;;;;;;;25.71;58.40;96248.00;5035439;28;20033;-28
2023/07/03 05:23:15;;;;;;;20.73;8.57;;;;;;;25.84;57.93;96255.59;5035201;28;20040;-29
2023/07/03 05:25:46;;;;;;;19.23;9.38;;;;;;;25.57;58.76;96254.03;5034839;28;20057;-29
2023/07/03 05:28:11;;;;;;;20.92;10.13;;;;;;;25.54;58.59;96257.88;5034978;28;20545;-28
2023/07/03 05:30:37;;;;;;;17.45;9.55;;;;;;;25.66;58.77;96243.28;5035018;28;20056;-27
2023/07/03 05:33:02;;;;;;;15.68;8.90;;;;;;;25.65;58.27;96238.25;5034933;28;20025;-28
2023/07/03 05:35:28;;;;;;;17.58;9.18;;;;;;;25.51;58.85;96250.59;5035258;28;20025;-27
2023/07/03 05:37:54;;;;;;;15.65;9.25;;;;;;;25.55;58.71;96251.03;5034518;28;20022;-28
2023/07/03 05:40:20;;;;;;;17.35;8.93;;;;;;;25.71;58.27;96258.38;5048168;28;20444;-27
2023/07/03 05:42:45;;;;;;;19.42;9.38;;;;;;;25.73;57.97;96258.56;5034203;28;20076;-29
2023/07/03 05:45:11;;;;;;;16.10;8.98;;;;;;;25.50;58.86;96249.09;5034507;28;20467;-28
2023/07/03 05:47:36;;;;;;;20.33;9.13;;;;;;;25.52;58.61;96258.41;5034770;28;20072;-28
2023/07/03 05:50:03;;;;;;;17.35;9.70;;;;;;;25.67;58.15;96266.25;5040385;28;20481;-27
2023/07/03 05:52:28;;;;;;;18.48;10.35;;;;;;;25.79;58.17;96264.03;5035358;28;20028;-27
2023/07/03 05:54:53;;;;;;;18.77;9.38;;;;;;;25.55;58.79;96259.38;5034391;28;20033;-28
2023/07/03 05:57:25;;;;;;;16.98;9.82;;;;;;;25.47;59.08;96255.72;5034032;28;20022;-28
2023/07/03 05:59:50;;;;;;;18.40;9.68;;;;;;;25.41;59.57;96259.34;5034506;28;20028;-28
2023/07/03 06:02:16;;;;;;;15.73;9.63;;;;;;;25.77;57.87;96261.78;5034125;28;20038;-28
2023/07/03 06:04:42;;;;;;;16.02;8.68;;;;;;;25.74;57.89;96263.59;5041207;28;20018;-28
2023/07/03 06:07:08;;;;;;;16.08;9.02;;;;;;;25.72;58.78;96273.72;5033996;28;20383;-28
2023/07/03 06:09:34;;;;;;;17.63;8.95;;;;;;;25.73;58.73;96273.19;5034267;28;20460;-28
2023/07/03 06:12:01;;;;;;;18.30;8.38;;;;;;;25.64;58.94;96264.53;5033784;28;20075;-28
2023/07/03 06:14:28;;;;;;;15.07;9.00;;;;;;;25.59;59.24;96263.31;5041187;28;20366;-28
2023/07/03 06:16:54;;;;;;;13.95;8.52;;;;;;;25.75;58.75;96265.09;5041045;28;20029;-28
2023/07/03 06:19:20;;;;;;;20.33;8.80;;;;;;;25.72;59.04;96266.16;5033856;28;20499;-28
2023/07/03 06:21:45;;;;;;;18.25;8.63;;;;;;;25.80;58.99;96273.88;5034117;28;20029;-28
2023/07/03 06:24:12;;;;;;;17.05;7.97;;;;;;;25.91;58.27;96266.09;5033663;28;20025;-28
2023/07/03 06:26:39;;;;;;;20.95;8.32;;;;;;;25.93;58.08;96269.09;5039542;28;20024;-28
2023/07/03 06:29:08;;;;;;;18.10;8.30;;;;;;;25.82;58.41;96258.16;5035043;28;20392;-29
2023/07/03 06:31:35;;;;;;;19.20;9.07;;;;;;;25.79;58.90;96250.91;5033595;28;20048;-28
2023/07/03 06:34:01;;;;;;;15.88;7.70;;;;;;;25.84;58.55;96261.13;5033629;28;20033;-28
2023/07/03 06:36:26;;;;;;;13.82;7.72;;;;;;;25.85;57.83;96259.88;5033722;28;20032;-27
2023/07/03 06:38:57;;;;;;;16.25;8.13;;;;;;;25.94;58.36;96259.47;5033518;28;20017;-28
2023/07/03 06:41:26;;;;;;;16.05;7.75;;;;;;;25.88;58.25;96261.59;5040526;28;20029;-28
2023/07/03 06:43:52;;;;;;;18.27;9.00;;;;;;;25.79;58.27;96275.91;5033841;28;20029;-27
2023/07/03 06:46:18;;;;;;;17.00;7.90;;;;;;;25.94;58.21;96270.59;5033411;28;20032;-30
2023/07/03 06:48:43;;;;;;;17.15;8.23;;;;;;;25.89;58.25;96263.09;5033103;28;20025;-29
2023/07/03 06:51:11;;;;;;;21.33;8.13;;;;;;;25.94;58.36;96262.25;5033450;28;20024;-28
2023/07/03 06:53:37;;;;;;;14.88;8.63;;;;;;;26.02;58.17;96265.88;5040971;28;20056;-28
2023/07/03 06:56:03;;;;;;;15.85;6.88;;;;;;;25.92;58.40;96262.03;5033602;28;20481;-27
2023/07/03 06:58:30;;;;;;;12.68;6.82;;;;;;;25.97;58.14;96263.19;5033605;28;20192;-30
2023/07/03 07:00:56;;;;;;;13.18;6.85;;;;;;;26.13;57.42;96260.09;5031801;28;20048;-28
2023/07/03 07:03:22;;;;;;;13.88;6.75;;;;;;;25.98;57.56;96259.13;5033340;28;20028;-28
2023/07/03 07:05:48;;;;;;;13.88;6.40;;;;;;;26.04;57.20;96254.97;5033243;28;20025;-27
2023/07/03 07:08:16;;;;;;;15.60;6.78;;;;;;;26.10;57.17;96252.81;5032983;28;20044;-28
2023/07/03 07:10:45;;;;;;;14.23;7.30;;;;;;;26.09;57.28;96253.34;5036559;28;20470;-29
2023/07/03 07:13:12;;;;;;;17.15;7.82;;;;;;;26.11;56.52;96259.88;5037349;28;20122;-28
2023/07/03 07:15:39;;;;;;;15.50;6.95;;;;;;;26.11;56.98;96264.69;5037377;28;20040;-27
2023/07/03 07:18:08;;;;;;;17.08;6.82;;;;;;;26.25;55.78;96266.19;5037310;28;20025;-27
2023/07/03 07:20:37;;;;;;;14.10;6.18;;;;;;;26.11;56.22;96267.47;5037446;28;20398;-27
2023/07/03 07:23:03;;;;;;;11.70;6.15;;;;;;;26.25;55.93;96259.88;5037616;28;20029;-27
2023/07/03 07:25:28;;;;;;;15.40;7.25;;;;;;;26.30;55.54;96264.63;5037269;28;20425;-27
2023/07/03 07:27:54;;;;;;;13.07;6.57;;;;;;;26.10;55.85;96265.97;5037069;28;20160;-27
2023/07/03 07:30:19;;;;;;;12.32;5.80;;;;;;;26.03;56.04;96266.63;5036830;28;20529;-27
2023/07/03 07:32:47;;;;;;;13.60;6.68;;;;;;;26.28;55.27;96269.97;5036982;28;20021;-27
2023/07/03 07:35:13;;;;;;;13.90;6.45;;;;;;;26.27;55.51;96266.41;5037064;28;20104;-27
2023/07/03 07:37:39;;;;;;;16.98;6.55;;;;;;;26.27;55.30;96265.66;5036782;28;20108;-28
2023/07/03 07:40:05;;;;;;;9.32;6.03;;;;;;;26.40;54.59;96277.56;5036779;28;20086;-27
2023/07/03 07:42:31;;;;;;;11.00;6.28;;;;;;;26.36;55.02;96265.25;5036459;28;20491;-27
2023/07/03 07:44:57;;;;;;;11.77;6.20;;;;;;;26.39;54.45;96264.94;5036611;28;20028;-27
2023/07/03 07:47:22;;;;;;;13.52;5.95;;;;;;;26.18;55.59;96266.84;5036460;28;20032;-27
2023/07/03 07:49:48;;;;;;;13.55;6.40;;;;;;;26.39;55.06;96269.75;5036833;28;20100;-28
2023/07/03 07:52:15;;;;;;;11.32;5.85;;;;;;;26.52;54.08;96266.94;5036521;28;20386;-27
2023/07/03 07:54:41;;;;;;;10.77;6.10;;;;;;;26.48;54.59;96266.53;5036449;28;20136;-27
2023/07/03 07:57:06;;;;;;;11.10;5.97;;;;;;;26.63;53.89;96263.94;5036478;28;20071;-27
2023/07/03 07:59:36;;;;;;;11.13;5.78;;;;;;;26.59;54.06;96266.28;5036375;28;20052;-27
2023/07/03 08:02:02;;;;;;;13.68;6.00;;;;;;;26.52;54.58;96266.94;5036790;28;20026;-27
2023/07/03 08:04:28;;;;;;;12.45;6.07;;;;;;;26.59;54.33;96277.41;5036288;28;20048;-28
2023/07/03 08:06:53;;;;;;;11.32;6.10;;;;;;;26.70;54.16;96270.91;5036178;28;20053;-27
2023/07/03 08:09:21;;;;;;;13.20;6.55;;;;;;;26.67;54.28;96258.81;5036189;28;20021;-27
2023/07/03 08:11:47;;;;;;;9.07;5.47;;;;;;;26.73;54.04;96262.19;5036693;28;20065;-27
2023/07/03 08:14:12;;;;;;;9.02;5.38;;;;;;;26.58;53.57;96275.19;5036176;28;20089;-27
2023/07/03 08:16:38;;;;;;;9.60;5.10;;;;;;;26.65;53.41;96280.84;5037032;28;20022;-27
2023/07/03 08:19:03;;;;;;;10.77;5.32;;;;;;;26.60;52.76;96281.69;5036009;28;20432;-27
2023/07/03 08:21:29;;;;;;;8.82;4.78;;;;;;;26.61;52.38;96279.66;5034806;28;20029;-27
2023/07/03 08:23:54;;;;;;;8.95;4.45;;;;;;;26.77;51.94;96270.97;5035934;28;20430;-27
2023/07/03 08:26:22;;;;;;;9.88;4.85;;;;;;;26.70;52.04;96271.66;5036306;28;20029;-27
2023/07/03 08:28:47;;;;;;;10.48;5.53;;;;;;;26.66;52.14;96276.78;5042936;28;20079;-28
2023/07/03 08:31:13;;;;;;;8.65;4.70;;;;;;;26.60;52.76;96272.59;5035927;28;20028;-27
2023/07/03 08:33:38;;;;;;;8.57;4.88;;;;;;;26.81;52.10;96265.84;5035906;28;20021;-27
2023/07/03 08:36:05;;;;;;;13.98;5.72;;;;;;;26.65;52.47;96266.94;5042057;28;20041;-27
2023/07/03 08:38:30;;;;;;;8.77;4.50;;;;;;;26.65;52.67;96266.19;5036179;28;20442;-27
2023/07/03 08:41:01;;;;;;;8.55;4.50;;;;;;;26.94;51.96;96267.88;5035582;28;20112;-27
2023/07/03 08:43:39;;;;;;;8.40;4.90;;;;;;;26.72;52.79;96269.03;5042948;28;20073;-27
2023/07/03 08:46:10;;;;;;;9.20;4.47;;;;;;;26.84;52.09;96277.91;5035503;28;20034;-27
2023/07/03 08:48:37;;;;;;;9.98;5.05;;;;;;;26.67;52.45;96283.84;5043127;28;20483;-27
2023/07/03 08:51:07;;;;;;;9.82;4.70;;;;;;;26.87;52.29;96279.63;5035455;28;20072;-27
2023/07/03 08:53:37;;;;;;;8.75;4.70;;;;;;;26.81;52.60;96282.53;5035394;28;20033;-28
2023/07/03 08:56:26;;;;;;;12.05;4.70;;;;;;;26.74;52.75;96291.50;5041481;28;20018;-28
2023/07/03 08:58:53;;;;;;;12.18;5.03;;;;;;;26.91;52.23;96288.38;5041192;28;20042;-27
2023/07/03 09:01:28;;;;;;;8.40;4.95;;;;;;;26.91;52.19;96290.41;5035388;28;20435;-29
2023/07/03 09:03:59;;;;;;;9.48;4.95;;;;;;;26.86;52.48;96300.38;5035449;28;20030;-27
2023/07/03 09:06:42;;;;;;;11.38;4.53;;;;;;;26.84;52.69;96297.38;5035219;28;20048;-27
2023/07/03 09:09:27;;;;;;;10.40;4.88;;;;;;;26.86;52.28;96300.38;5035161;28;20104;-27
2023/07/03 09:12:10;;;;;;;6.68;4.47;;;;;;;26.80;52.41;96289.38;5035477;28;20496;-28
2023/07/03 09:14:46;;;;;;;9.32;5.78;;;;;;;26.76;52.67;96291.72;5034953;28;20025;-28
2023/07/03 09:17:12;;;;;;;8.77;4.72;;;;;;;26.68;52.88;96302.03;5035817;28;20018;-27
2023/07/03 09:19:41;;;;;;;8.57;4.57;;;;;;;26.81;52.89;96292.91;5034962;28;20509;-27
2023/07/03 09:22:14;;;;;;;8.25;4.40;;;;;;;26.92;52.09;96297.47;5035546;28;20108;-28
2023/07/03 09:24:44;;;;;;;8.05;4.78;;;;;;;26.88;52.51;96303.38;5035245;28;20021;-27
2023/07/03 09:27:23;;;;;;;11.23;4.20;;;;;;;26.79;52.53;96299.00;5034831;28;21975;-27
2023/07/03 09:29:49;;;;;;;8.30;4.03;;;;;;;27.06;52.01;96296.19;5035043;28;20052;-27
2023/07/03 09:32:24;;;;;;;8.15;4.10;;;;;;;27.01;52.58;96295.03;5034676;28;20021;-27
2023/07/03 09:35:07;;;;;;;9.27;4.53;;;;;;;27.03;52.13;96291.69;5041656;28;20245;-27
2023/07/03 09:37:37;;;;;;;8.38;3.45;;;;;;;26.77;52.98;96292.47;5041759;28;20017;-27
2023/07/03 09:40:10;;;;;;;8.70;4.18;;;;;;;26.93;52.46;96287.88;5035421;28;20083;-27
2023/07/03 09:42:36;;;;;;;9.95;4.28;;;;;;;27.01;52.42;96288.69;5034434;28;20128;-27
2023/07/03 09:45:11;;;;;;;7.63;3.92;;;;;;;26.89;52.59;96287.44;5034745;28;20022;-28
2023/07/03 09:47:36;;;;;;;11.65;4.10;;;;;;;27.11;51.60;96286.94;5041686;28;20067;-28
2023/07/03 09:50:08;;;;;;;7.32;3.63;;;;;;;27.05;51.94;96294.69;5034488;28;20432;-27
2023/07/03 09:52:41;;;;;;;6.28;3.35;;;;;;;26.92;52.31;96287.09;5034533;28;20028;-27
2023/07/03 09:55:07;;;;;;;6.57;3.85;;;;;;;26.98;52.30;96289.78;5034717;28;20031;-27
2023/07/03 09:57:34;;;;;;;10.98;4.30;;;;;;;27.10;52.22;96291.03;5034474;28;20131;-27
2023/07/03 10:00:17;;;;;;;7.05;4.28;;;;;;;26.99;52.41;96292.03;5034676;28;20025;-27
2023/07/03 10:02:44;;;;;;;8.48;4.28;;;;;;;26.94;52.81;96292.16;5034064;28;20071;-27
2023/07/03 10:05:15;;;;;;;8.32;4.00;;;;;;;27.07;52.30;96292.13;5034397;28;20021;-28
2023/07/03 10:07:43;;;;;;;10.43;4.72;;;;;;;27.21;52.00;96299.13;5034452;28;20089;-28
2023/07/03 10:10:12;;;;;;;10.23;3.88;;;;;;;26.97;52.50;96304.97;5047235;28;20386;-27
2023/07/03 10:12:47;;;;;;;5.93;3.42;;;;;;;27.04;52.05;96301.53;5034222;28;20061;-27
2023/07/03 10:15:20;;;;;;;11.25;3.75;;;;;;;26.88;52.24;96305.41;5034138;28;20017;-27
2023/07/03 10:17:52;;;;;;;6.45;3.13;;;;;;;27.12;51.87;96300.34;5034499;28;20053;-28
2023/07/03 10:20:24;;;;;;;9.55;3.70;;;;;;;26.94;52.10;96306.81;5034230;28;20533;-27
2023/07/03 10:22:51;;;;;;;7.40;3.65;;;;;;;26.90;52.42;96313.97;5033818;28;20064;-27
2023/07/03 10:25:24;;;;;;;6.32;3.60;;;;;;;26.96;51.93;96309.78;5033945;28;20041;-27
2023/07/03 10:27:55;;;;;;;8.30;3.88;;;;;;;27.14;51.60;96310.94;5033754;28;20277;-27
2023/07/03 10:30:23;;;;;;;10.90;3.60;;;;;;;27.13;51.45;96301.09;5034187;28;20390;-28
2023/07/03 10:32:52;;;;;;;4.97;3.00;;;;;;;26.99;52.14;96308.72;5033735;28;20378;-27
2023/07/03 10:35:30;;;;;;;6.05;3.53;;;;;;;26.98;52.01;96312.03;5040850;28;20021;-27
2023/07/03 10:38:34;;;;;;;7.00;3.88;;;;;;;27.02;51.41;96302.09;5033870;28;20017;-27
2023/07/03 10:41:07;;;;;;;;;;;;;;;27.01;51.58;96299.84;5034205;28;20113;-27
2023/07/03 10:43:38;;;;;;;6.78;3.15;;;;;;;26.94;51.64;96309.59;5040554;28;20314;-27
2023/07/03 10:46:07;;;;;;;8.98;3.67;;;;;;;27.04;51.14;96304.31;5033187;28;20395;-28
2023/07/03 10:48:34;;;;;;;5.40;3.30;;;;;;;26.92;51.51;96308.63;5034022;28;20096;-28
2023/07/03 10:51:17;;;;;;;5.35;3.15;;;;;;;27.03;50.97;96294.47;5033624;28;20045;-27
2023/07/03 10:54:16;;;;;;;6.28;3.17;;;;;;;27.02;51.07;96298.56;5033652;28;20057;-27
2023/07/03 10:56:45;;;;;;;6.43;2.97;;;;;;;26.96;51.00;96309.78;5031765;28;20091;-27
2023/07/03 10:59:21;;;;;;;6.43;3.47;;;;;;;27.04;50.66;96298.75;5033872;28;20022;-27
2023/07/03 11:02:05;;;;;;;6.03;3.28;;;;;;;27.11;50.83;96304.41;5033820;28;20112;-27
2023/07/03 11:04:43;;;;;;;6.30;3.40;;;;;;;27.03;50.69;96305.63;5040609;28;20033;-27
2023/07/03 11:07:13;;;;;;;6.70;3.30;;;;;;;27.12;50.18;96316.28;5033313;28;20044;-27
2023/07/03 11:09:50;;;;;;;5.82;3.00;;;;;;;27.05;50.63;96309.34;5033652;28;20026;-27
2023/07/03 11:12:29;;;;;;;7.45;3.38;;;;;;;27.12;50.50;96310.72;5033333;28;20023;-27
2023/07/03 11:15:30;;;;;;;4.65;2.55;;;;;;;27.17;50.38;96307.81;5033192;28;20032;-27
2023/07/03 11:18:14;;;;;;;5.80;3.35;;;;;;;27.08;50.84;96313.06;5028225;28;20041;-27
2023/07/03 11:20:51;;;;;;;10.35;3.90;;;;;;;27.20;50.18;96305.25;5047863;28;20049;-27
2023/07/03 11:23:29;;;;;;;5.95;3.25;;;;;;;27.13;50.65;96306.66;5033103;28;20021;-27
2023/07/03 11:26:18;;;;;;;6.55;2.72;;;;;;;27.11;50.79;96303.66;5032972;28;20415;-29
2023/07/03 11:28:49;;;;;;;5.00;3.00;;;;;;;27.17;50.02;96301.50;5033317;28;20021;-27
2023/07/03 11:31:16;;;;;;;5.30;2.70;;;;;;;27.14;50.22;96302.59;5033579;28;20083;-28
2023/07/03 11:33:43;;;;;;;6.93;2.95;;;;;;;27.29;50.08;96308.31;5033254;28;20022;-28
2023/07/03 11:36:34;;;;;;;7.15;2.83;;;;;;;27.21;49.85;96301.91;5033152;28;20502;-27